Time;durP1;ratioP1;P1;durP2;ratioP2;P2;SDS_P1;SDS_P2;PMS_P1;PMS_P2;Temp;Humidity;BMP_temperature;BMP_pressure;BME280_temperature;BME280_humidity;BME280_pressure;Samples;Min_cycle;Max_cycle;Signal;HPM_P1;HPM_P2
2023/09/11 00:02:19;;;;;;;1.20;1.10;;;17.10;99.90;;;;;;6206230;23;20410;-88
2023/09/11 00:34:23;;;;;;;2.00;1.90;;;16.60;99.90;;;;;;6134992;22;20641;-86
2023/09/11 00:36:51;;;;;;;0.97;0.97;;;16.60;99.90;;;;;;6247782;23;20390;-86
2023/09/11 00:39:25;;;;;;;1.60;1.53;;;16.60;99.90;;;;;;6244017;23;20405;-86
2023/09/11 00:41:52;;;;;;;1.13;1.13;;;16.60;99.90;;;;;;6243572;23;20365;-85
2023/09/11 00:44:21;;;;;;;1.67;1.60;;;16.60;99.90;;;;;;6243356;23;20398;-85
2023/09/11 00:46:51;;;;;;;1.23;1.13;;;16.50;99.90;;;;;;6217259;23;20442;-87
2023/09/11 00:49:20;;;;;;;1.43;1.33;;;16.40;99.90;;;;;;6239820;23;20361;-87
2023/09/11 00:57:03;;;;;;;1.13;1.13;;;16.30;99.90;;;;;;6235730;22;20453;-87
2023/09/11 01:07:45;;;;;;;0.97;0.97;;;16.20;99.90;;;;;;6178355;23;20395;-86
2023/09/11 01:12:41;;;;;;;2.70;2.60;;;16.20;99.90;;;;;;6183370;23;20519;-86
2023/09/11 01:15:11;;;;;;;1.37;1.37;;;16.20;99.90;;;;;;6181845;23;20376;-87
2023/09/11 01:17:51;;;;;;;2.10;2.00;;;16.10;99.90;;;;;;6179439;23;20373;-87
2023/09/11 01:23:32;;;;;;;1.63;1.53;;;16.10;99.90;;;;;;6250958;22;20421;-87
2023/09/11 01:26:48;;;;;;;3.50;3.20;;;16.00;99.90;;;;;;6269294;22;20407;-87
2023/09/11 01:29:25;;;;;;;1.40;1.30;;;16.00;99.90;;;;;;6268713;23;20428;-87
2023/09/11 01:31:59;;;;;;;2.93;2.73;;;16.00;99.90;;;;;;6220246;22;20440;-87
2023/09/11 01:34:26;;;;;;;1.67;1.57;;;16.00;99.90;;;;;;6217854;23;20370;-86
2023/09/11 01:36:53;;;;;;;1.57;1.50;;;15.90;99.90;;;;;;6243226;23;20388;-85
2023/09/11 01:42:04;;;;;;;1.10;1.10;;;15.90;99.90;;;;;;6161224;22;20426;-84
2023/09/11 01:44:39;;;;;;;0.93;0.93;;;15.90;99.90;;;;;;6238486;23;20373;-86
2023/09/11 01:47:25;;;;;;;1.13;1.13;;;15.80;99.90;;;;;;6134284;22;20458;-87
2023/09/11 01:52:37;;;;;;;1.53;1.43;;;15.80;99.90;;;;;;6238991;22;20465;-87
2023/09/11 01:55:06;;;;;;;2.07;1.97;;;15.80;99.90;;;;;;6152766;22;20448;-91
2023/09/11 01:57:35;;;;;;;1.93;1.83;;;15.80;99.90;;;;;;6207898;22;20461;-87
2023/09/11 02:00:04;;;;;;;2.33;2.13;;;15.70;99.90;;;;;;6235379;23;20393;-90
2023/09/11 02:02:33;;;;;;;2.20;2.10;;;15.70;99.90;;;;;;6233226;23;20400;-88
2023/09/11 02:05:03;;;;;;;3.50;2.03;;;15.70;99.90;;;;;;6234357;23;20423;-89
2023/09/11 02:07:30;;;;;;;1.50;1.40;;;15.70;99.90;;;;;;6234368;23;20408;-87
2023/09/11 02:26:17;;;;;;;1.47;1.27;;;15.60;99.90;;;;;;6198986;22;20559;-87
2023/09/11 02:28:47;;;;;;;1.03;1.03;;;15.50;99.90;;;;;;6241648;23;20640;-84
2023/09/11 02:31:14;;;;;;;3.00;2.80;;;15.50;99.90;;;;;;6242214;23;20405;-86
2023/09/11 02:33:41;;;;;;;1.47;1.10;;;15.50;99.90;;;;;;6243490;23;20463;-87
2023/09/11 02:36:10;;;;;;;1.77;1.67;;;15.50;99.90;;;;;;6243056;23;20417;-87
2023/09/11 02:38:38;;;;;;;1.47;1.37;;;15.50;99.90;;;;;;6243087;23;20385;-87
2023/09/11 02:41:31;;;;;;;0.93;0.93;;;15.40;99.90;;;;;;6242352;23;20419;-85
2023/09/11 02:43:58;;;;;;;2.90;2.63;;;15.40;99.90;;;;;;6206744;23;20410;-84
2023/09/11 02:46:26;;;;;;;1.60;1.57;;;15.40;99.90;;;;;;6228739;23;20397;-88
2023/09/11 02:48:56;;;;;;;1.83;1.73;;;15.40;99.90;;;;;;6229561;23;20428;-88
2023/09/11 02:51:25;;;;;;;3.17;2.97;;;15.50;99.90;;;;;;6175328;23;20431;-88
2023/09/11 02:53:55;;;;;;;2.90;2.00;;;15.40;99.90;;;;;;6213330;23;20457;-87
2023/09/11 02:56:23;;;;;;;2.93;2.13;;;15.40;99.90;;;;;;6235069;23;20407;-89
2023/09/11 02:58:54;;;;;;;1.90;1.80;;;15.40;99.90;;;;;;6238224;23;20600;-85
2023/09/11 03:01:23;;;;;;;1.93;1.83;;;15.40;99.90;;;;;;6253144;22;20468;-91
2023/09/11 03:03:51;;;;;;;1.57;1.47;;;15.40;99.90;;;;;;6266714;22;20431;-88
2023/09/11 03:09:00;;;;;;;2.50;2.40;;;15.30;99.90;;;;;;6178186;22;20453;-87
2023/09/11 03:11:27;;;;;;;1.23;1.20;;;15.30;99.90;;;;;;6224208;23;20400;-86
2023/09/11 03:13:54;;;;;;;2.53;2.43;;;15.30;99.90;;;;;;6222847;23;20440;-89
2023/09/11 03:16:21;;;;;;;2.13;2.03;;;15.30;99.90;;;;;;6221614;23;20404;-86
2023/09/11 03:18:48;;;;;;;2.30;2.10;;;15.30;99.90;;;;;;6222623;23;20406;-86
2023/09/11 03:21:15;;;;;;;1.90;1.80;;;15.20;99.90;;;;;;6229178;23;20452;-85
2023/09/11 03:23:43;;;;;;;2.70;2.10;;;15.20;99.90;;;;;;6224812;23;20400;-84
2023/09/11 03:26:16;;;;;;;4.70;2.47;;;15.20;99.90;;;;;;6224732;23;20440;-87
2023/09/11 03:28:48;;;;;;;2.10;2.00;;;15.10;99.90;;;;;;6225210;23;20383;-89
2023/09/11 03:31:15;;;;;;;1.00;1.00;;;15.20;99.90;;;;;;6199723;23;20380;-87
2023/09/11 03:33:44;;;;;;;0.90;0.90;;;15.10;99.90;;;;;;6197319;23;20558;-88
2023/09/11 03:36:16;;;;;;;1.20;1.17;;;15.10;99.90;;;;;;6223738;23;20728;-88
2023/09/11 03:38:44;;;;;;;2.10;2.00;;;15.10;99.90;;;;;;6223501;23;20436;-88
2023/09/11 03:41:12;;;;;;;1.17;1.17;;;15.10;99.90;;;;;;6227351;23;20428;-86
2023/09/11 03:57:01;;;;;;;1.60;1.50;;;15.00;99.90;;;;;;6215673;22;20482;-86
2023/09/11 03:59:28;;;;;;;0.70;0.70;;;15.00;99.90;;;;;;6221833;23;20397;-84
2023/09/11 04:01:55;;;;;;;2.70;2.50;;;15.00;99.90;;;;;;6221785;23;20429;-84
2023/09/11 04:04:22;;;;;;;1.33;1.23;;;15.00;99.90;;;;;;6221292;23;20406;-86
2023/09/11 04:06:49;;;;;;;1.87;1.77;;;14.90;99.90;;;;;;6220835;23;20463;-87
2023/09/11 04:09:16;;;;;;;1.87;1.77;;;14.90;99.90;;;;;;6225772;23;20404;-86
2023/09/11 04:11:43;;;;;;;0.80;0.80;;;14.90;99.90;;;;;;6224093;23;20757;-84
2023/09/11 04:14:11;;;;;;;1.77;1.67;;;15.10;99.90;;;;;;6221840;23;20400;-84
2023/09/11 04:16:45;;;;;;;4.13;3.87;;;14.90;99.90;;;;;;6222354;23;20399;-85
2023/09/11 04:19:12;;;;;;;2.00;1.90;;;14.90;99.90;;;;;;6194455;23;20596;-86
2023/09/11 04:21:39;;;;;;;2.43;2.33;;;14.90;99.90;;;;;;6221062;23;20403;-83
2023/09/11 04:24:12;;;;;;;2.80;2.60;;;14.90;99.90;;;;;;6222752;23;20403;-85
2023/09/11 04:26:40;;;;;;;3.00;2.70;;;14.90;99.90;;;;;;6221754;23;20430;-86
2023/09/11 04:29:11;;;;;;;1.23;1.17;;;14.90;99.90;;;;;;6224411;23;20420;-82
2023/09/11 04:31:39;;;;;;;3.57;3.37;;;14.90;99.90;;;;;;6197049;23;20389;-84
2023/09/11 04:34:07;;;;;;;1.83;1.73;;;14.90;99.90;;;;;;6222374;23;20400;-84
2023/09/11 04:36:35;;;;;;;1.47;1.43;;;14.90;99.90;;;;;;6226270;23;20401;-82
2023/09/11 04:39:04;;;;;;;1.07;1.07;;;14.90;99.90;;;;;;6215160;23;20423;-82
2023/09/11 04:41:33;;;;;;;1.50;1.50;;;14.90;99.90;;;;;;6238581;23;20385;-81
2023/09/11 04:44:00;;;;;;;1.20;1.20;;;14.90;99.90;;;;;;6240207;23;20396;-84
2023/09/11 04:46:27;;;;;;;2.30;2.20;;;15.10;99.90;;;;;;6216035;23;20448;-83
2023/09/11 04:48:55;;;;;;;4.20;3.90;;;15.10;99.90;;;;;;6238922;23;20415;-83
2023/09/11 04:51:22;;;;;;;2.30;2.20;;;15.10;99.90;;;;;;6228503;23;20470;-82
2023/09/11 04:53:49;;;;;;;2.40;2.30;;;15.10;99.90;;;;;;6220930;23;20373;-82
2023/09/11 04:56:16;;;;;;;1.77;1.67;;;15.30;99.90;;;;;;6221693;23;20434;-85
2023/09/11 04:58:44;;;;;;;1.00;1.00;;;15.40;99.90;;;;;;6193960;23;20428;-84
2023/09/11 05:01:11;;;;;;;1.23;1.23;;;15.50;99.90;;;;;;6219664;23;20431;-83
2023/09/11 05:03:38;;;;;;;0.77;0.77;;;15.60;99.90;;;;;;6219972;23;20537;-82
2023/09/11 05:06:05;;;;;;;4.57;2.40;;;15.70;99.90;;;;;;6222143;23;20490;-83
2023/09/11 05:08:32;;;;;;;0.80;0.80;;;15.80;99.90;;;;;;6223267;23;20433;-83
2023/09/11 05:11:19;;;;;;;2.30;2.20;;;15.90;99.90;;;;;;6232328;23;20405;-80
2023/09/11 05:13:46;;;;;;;0.73;0.73;;;16.00;99.90;;;;;;6235933;23;20390;-83
2023/09/11 05:16:13;;;;;;;1.07;1.07;;;16.20;99.90;;;;;;6211243;23;20440;-84
2023/09/11 05:18:40;;;;;;;1.30;1.20;;;16.30;99.90;;;;;;6223513;23;20757;-82
2023/09/11 05:21:08;;;;;;;1.03;1.03;;;16.50;99.90;;;;;;6220966;23;20397;-85
2023/09/11 05:23:35;;;;;;;1.63;1.53;;;16.50;99.90;;;;;;6222097;23;20390;-84
2023/09/11 05:26:03;;;;;;;1.67;1.57;;;16.70;99.90;;;;;;6225203;23;20456;-86
2023/09/11 05:28:30;;;;;;;1.00;1.00;;;16.80;99.90;;;;;;6227061;23;20408;-85
2023/09/11 05:30:57;;;;;;;1.93;1.83;;;17.00;99.90;;;;;;6206696;23;20386;-82
2023/09/11 05:33:24;;;;;;;1.10;1.10;;;17.20;99.90;;;;;;6237631;23;20417;-81
2023/09/11 05:35:52;;;;;;;3.03;2.30;;;17.40;99.90;;;;;;6238092;23;20405;-81
2023/09/11 05:38:19;;;;;;;1.10;1.10;;;17.60;99.90;;;;;;6238861;23;20397;-80
2023/09/11 05:40:46;;;;;;;2.10;2.00;;;17.80;99.90;;;;;;6240059;23;20417;-78
2023/09/11 05:43:13;;;;;;;1.43;1.33;;;17.90;99.90;;;;;;6238560;23;20464;-85
2023/09/11 05:45:41;;;;;;;1.20;1.20;;;18.20;99.90;;;;;;6237868;23;20437;-82
2023/09/11 05:48:11;;;;;;;2.20;2.10;;;18.30;99.90;;;;;;6212497;23;20395;-81
2023/09/11 05:50:39;;;;;;;2.97;2.07;;;18.50;99.90;;;;;;6238968;23;20449;-79
2023/09/11 05:53:06;;;;;;;1.50;1.40;;;18.70;99.90;;;;;;6238591;23;20398;-80
2023/09/11 05:55:34;;;;;;;1.63;1.53;;;18.90;99.90;;;;;;6238749;23;20435;-81
2023/09/11 05:58:01;;;;;;;1.83;1.73;;;19.00;99.90;;;;;;6242309;23;20430;-80
2023/09/11 06:00:28;;;;;;;3.03;2.83;;;19.20;99.90;;;;;;6242084;23;20390;-82
2023/09/11 06:02:55;;;;;;;1.80;1.57;;;19.60;99.90;;;;;;6241149;23;20402;-82
2023/09/11 06:05:23;;;;;;;1.10;1.10;;;19.70;99.90;;;;;;6239281;23;20434;-83
2023/09/11 06:07:50;;;;;;;1.97;1.87;;;19.90;99.90;;;;;;6237731;23;20436;-84
2023/09/11 06:10:18;;;;;;;1.57;1.47;;;19.80;99.90;;;;;;6236515;23;20420;-83
2023/09/11 06:12:45;;;;;;;1.30;1.27;;;20.10;99.90;;;;;;6232703;23;20396;-83
2023/09/11 06:15:12;;;;;;;3.17;2.97;;;20.40;99.90;;;;;;6229863;23;20430;-84
2023/09/11 06:17:39;;;;;;;0.83;0.83;;;20.40;99.90;;;;;;6201975;23;20614;-84
2023/09/11 06:20:15;;;;;;;2.30;2.20;;;20.60;99.90;;;;;;6229947;23;20415;-84
2023/09/11 06:22:43;;;;;;;2.60;2.50;;;20.80;99.90;;;;;;6183042;23;20373;-84
2023/09/11 06:25:10;;;;;;;2.00;1.90;;;21.00;99.90;;;;;;6230815;23;20479;-83
2023/09/11 06:27:38;;;;;;;1.67;1.57;;;21.40;99.90;;;;;;6233204;23;20405;-83
2023/09/11 06:30:05;;;;;;;1.60;1.50;;;21.70;99.90;;;;;;6212397;23;20416;-84
2023/09/11 06:32:33;;;;;;;1.00;1.00;;;21.70;99.90;;;;;;6240086;23;20424;-86
2023/09/11 06:35:01;;;;;;;2.03;1.93;;;22.10;99.90;;;;;;6239687;23;20433;-85
2023/09/11 06:37:28;;;;;;;2.63;1.93;;;22.50;99.90;;;;;;6229012;22;20521;-80
2023/09/11 06:39:56;;;;;;;2.50;2.30;;;23.20;99.90;;;;;;6239146;23;20353;-82
2023/09/11 06:42:25;;;;;;;2.13;1.97;;;23.70;99.90;;;;;;6237324;23;20405;-82
2023/09/11 06:44:53;;;;;;;1.00;1.00;;;23.90;99.90;;;;;;6240003;23;20862;-83
2023/09/11 06:47:20;;;;;;;1.57;1.47;;;24.00;99.90;;;;;;6211358;23;20393;-82
2023/09/11 06:49:47;;;;;;;1.30;1.30;;;23.90;99.90;;;;;;6229711;23;20376;-87
2023/09/11 06:52:16;;;;;;;3.10;2.90;;;24.20;99.90;;;;;;6230455;23;20428;-85
2023/09/11 06:54:43;;;;;;;3.33;3.13;;;24.90;99.90;;;;;;6239276;23;20369;-88
2023/09/11 06:57:11;;;;;;;1.60;1.50;;;25.20;99.90;;;;;;6217288;23;20428;-87
2023/09/11 06:59:38;;;;;;;1.80;1.70;;;25.70;99.90;;;;;;6242710;23;20401;-85
2023/09/11 07:02:06;;;;;;;1.77;1.63;;;26.20;99.90;;;;;;6214631;23;20368;-81
2023/09/11 07:04:33;;;;;;;2.27;2.17;;;26.60;99.90;;;;;;6211909;23;20413;-81
2023/09/11 07:07:00;;;;;;;2.20;2.10;;;27.50;99.90;;;;;;6236507;23;20412;-81
2023/09/11 07:09:27;;;;;;;3.50;3.30;;;28.10;98.70;;;;;;6211256;23;20394;-82
2023/09/11 07:11:54;;;;;;;3.43;3.13;;;28.10;97.50;;;;;;6231039;23;20589;-84
2023/09/11 07:14:22;;;;;;;1.70;1.60;;;28.50;97.40;;;;;;6226799;23;20377;-88
2023/09/11 07:16:50;;;;;;;1.60;1.50;;;29.30;94.90;;;;;;6226835;23;20395;-86
2023/09/11 07:19:17;;;;;;;1.43;1.37;;;30.00;93.00;;;;;;6199286;23;20414;-88
2023/09/11 07:21:44;;;;;;;2.33;2.23;;;29.80;91.70;;;;;;6221695;23;20410;-85
2023/09/11 07:24:11;;;;;;;2.70;2.50;;;30.30;90.40;;;;;;6195568;23;20464;-83
2023/09/11 07:26:39;;;;;;;1.50;1.43;;;31.00;86.10;;;;;;6222313;23;20675;-82
2023/09/11 07:29:06;;;;;;;2.47;2.37;;;30.80;85.60;;;;;;6225276;23;20429;-83
2023/09/11 07:31:35;;;;;;;1.40;1.30;;;31.00;83.00;;;;;;6222396;23;20468;-85
2023/09/11 07:34:02;;;;;;;1.37;1.27;;;31.60;79.40;;;;;;6223886;23;20398;-88
2023/09/11 07:36:30;;;;;;;1.57;1.47;;;31.40;80.20;;;;;;6224987;23;20671;-83
2023/09/11 07:38:58;;;;;;;2.87;2.77;;;31.40;79.10;;;;;;6218426;23;20420;-88
2023/09/11 07:41:25;;;;;;;1.20;1.20;;;31.90;76.10;;;;;;6225523;23;20409;-81
2023/09/11 07:43:53;;;;;;;1.27;1.27;;;32.80;72.90;;;;;;6226461;23;20401;-88
2023/09/11 07:46:24;;;;;;;1.57;1.47;;;32.80;70.90;;;;;;6226935;23;20518;-87
2023/09/11 07:48:51;;;;;;;2.53;2.40;;;32.70;71.90;;;;;;6225535;23;20386;-80
2023/09/11 07:51:25;;;;;;;1.60;1.50;;;32.70;68.70;;;;;;6228544;23;20381;-84
2023/09/11 07:53:52;;;;;;;2.47;2.37;;;32.70;69.20;;;;;;6233900;23;20396;-80
2023/09/11 07:56:19;;;;;;;1.97;1.87;;;32.50;69.00;;;;;;6231772;23;20400;-86
2023/09/11 07:58:50;;;;;;;2.37;2.27;;;33.00;67.60;;;;;;6230786;23;20424;-83
2023/09/11 08:01:21;;;;;;;2.63;2.43;;;32.90;67.50;;;;;;6239048;23;20459;-80
2023/09/11 08:03:48;;;;;;;1.20;1.20;;;33.10;65.20;;;;;;6176682;22;20478;-83
2023/09/11 08:06:16;;;;;;;3.10;2.90;;;32.80;65.00;;;;;;6239533;22;20445;-80
2023/09/11 08:14:11;;;;;;;1.23;1.23;;;33.10;65.80;;;;;;6170113;23;20388;-87
2023/09/11 08:19:20;;;;;;;1.17;1.17;;;33.20;63.20;;;;;;6175703;22;20500;-83
2023/09/11 08:27:06;;;;;;;1.83;1.67;;;33.20;63.10;;;;;;6190561;22;20498;-86
2023/09/11 08:29:35;;;;;;;1.40;1.30;;;32.90;64.00;;;;;;6232983;23;20410;-83
2023/09/11 08:32:02;;;;;;;2.27;2.17;;;32.80;64.40;;;;;;6205999;23;20419;-83
2023/09/11 08:34:29;;;;;;;1.53;1.47;;;33.30;62.60;;;;;;6185281;22;20455;-83
2023/09/11 08:36:57;;;;;;;1.63;1.53;;;33.90;62.50;;;;;;6232440;23;20432;-84
2023/09/11 08:42:09;;;;;;;1.57;1.47;;;33.80;61.80;;;;;;6170478;22;20819;-82
2023/09/11 08:47:23;;;;;;;1.60;1.50;;;32.70;63.40;;;;;;6201581;22;20446;-80
2023/09/11 08:49:54;;;;;;;1.43;1.33;;;32.30;65.80;;;;;;6238213;23;20367;-88
2023/09/11 08:52:22;;;;;;;2.13;2.03;;;32.60;65.70;;;;;;6227668;23;20432;-85
2023/09/11 08:54:53;;;;;;;2.53;2.43;;;32.80;64.10;;;;;;6225432;23;20568;-82
2023/09/11 08:57:24;;;;;;;1.27;1.27;;;33.10;63.70;;;;;;6228960;23;20413;-82
2023/09/11 08:59:56;;;;;;;1.93;1.83;;;33.50;62.00;;;;;;6237374;23;20406;-87
2023/09/11 09:02:24;;;;;;;1.10;1.10;;;33.20;62.70;;;;;;6239395;23;20396;-83
2023/09/11 09:04:52;;;;;;;1.80;1.70;;;33.20;62.90;;;;;;6232391;23;20422;-88
2023/09/11 09:07:20;;;;;;;1.90;1.80;;;33.80;62.20;;;;;;6229128;23;20407;-85
2023/09/11 09:09:48;;;;;;;1.70;1.60;;;33.80;60.20;;;;;;6207841;23;20572;-86
2023/09/11 09:12:15;;;;;;;4.00;3.80;;;33.20;59.40;;;;;;6230453;23;20414;-82
2023/09/11 09:14:43;;;;;;;2.60;2.40;;;33.50;60.40;;;;;;6243980;22;20475;-84
2023/09/11 09:17:09;;;;;;;1.93;1.83;;;32.80;61.10;;;;;;6257972;23;20438;-88
2023/09/11 09:19:37;;;;;;;1.87;1.77;;;32.40;63.00;;;;;;6251445;23;20399;-85
2023/09/11 09:22:07;;;;;;;2.03;1.93;;;32.10;64.00;;;;;;6253804;23;20403;-84
2023/09/11 09:24:36;;;;;;;1.20;1.20;;;32.00;63.80;;;;;;6250762;23;20394;-85
2023/09/11 09:27:07;;;;;;;1.43;1.33;;;31.90;65.00;;;;;;6251824;23;20509;-85
2023/09/11 09:29:37;;;;;;;2.53;2.43;;;31.90;64.90;;;;;;6253271;22;20417;-85
2023/09/11 09:32:07;;;;;;;1.57;1.47;;;31.80;65.40;;;;;;6250953;23;20421;-85
2023/09/11 09:34:36;;;;;;;1.57;1.47;;;31.90;65.80;;;;;;6250766;22;20445;-84
2023/09/11 09:37:03;;;;;;;2.27;2.17;;;31.60;67.30;;;;;;6252112;23;20437;-85
2023/09/11 09:39:33;;;;;;;4.23;3.93;;;31.40;67.50;;;;;;6256387;23;20391;-86
2023/09/11 09:42:02;;;;;;;1.40;1.40;;;31.40;67.80;;;;;;6256889;23;20405;-85
2023/09/11 09:44:30;;;;;;;1.60;1.50;;;31.00;68.50;;;;;;6251269;22;20400;-85
2023/09/11 09:47:27;;;;;;;2.00;1.90;;;30.80;70.50;;;;;;6253598;23;20781;-86
2023/09/11 09:49:56;;;;;;;1.90;1.80;;;30.40;68.50;;;;;;6253856;23;20400;-85
2023/09/11 09:52:28;;;;;;;2.23;1.23;;;30.20;69.90;;;;;;6251535;23;20385;-86
2023/09/11 09:54:58;;;;;;;1.57;1.47;;;30.20;70.20;;;;;;6249876;23;20402;-85
2023/09/11 09:57:26;;;;;;;1.80;1.70;;;30.20;70.50;;;;;;6258045;22;20494;-86
2023/09/11 09:59:57;;;;;;;2.37;2.27;;;30.30;70.30;;;;;;6254126;23;20372;-86
2023/09/11 10:02:32;;;;;;;2.10;2.00;;;30.30;68.70;;;;;;6253757;22;20435;-86
2023/09/11 10:05:05;;;;;;;2.17;2.07;;;30.10;70.10;;;;;;6250818;22;20453;-86
2023/09/11 10:07:37;;;;;;;1.70;1.60;;;30.20;70.60;;;;;;6250686;22;20427;-85
2023/09/11 10:10:23;;;;;;;1.50;1.40;;;30.40;70.70;;;;;;6250429;22;20978;-84
2023/09/11 10:13:00;;;;;;;3.33;3.10;;;30.40;69.80;;;;;;6250097;22;20569;-84
2023/09/11 10:15:29;;;;;;;1.53;1.43;;;30.30;69.80;;;;;;6251359;23;20637;-85
2023/09/11 10:17:56;;;;;;;3.70;3.33;;;30.40;69.70;;;;;;6251558;23;20527;-84
2023/09/11 10:20:25;;;;;;;1.67;1.57;;;30.60;69.30;;;;;;6251329;23;20401;-84
2023/09/11 10:23:00;;;;;;;1.10;1.10;;;30.50;68.60;;;;;;6251771;22;20406;-85
2023/09/11 10:25:32;;;;;;;1.63;1.53;;;30.40;68.50;;;;;;6251812;23;20381;-84
2023/09/11 10:28:26;;;;;;;1.83;1.73;;;30.40;68.50;;;;;;6254261;23;20412;-85
2023/09/11 10:31:15;;;;;;;1.90;1.80;;;30.30;67.40;;;;;;6225407;23;20958;-84
2023/09/11 10:33:45;;;;;;;1.77;1.67;;;30.50;67.70;;;;;;6257512;22;20769;-86
2023/09/11 10:36:14;;;;;;;3.03;2.13;;;30.30;68.50;;;;;;6258386;22;20739;-85
2023/09/11 10:38:46;;;;;;;2.60;2.40;;;30.30;68.70;;;;;;6259363;22;20432;-82
2023/09/11 10:41:13;;;;;;;1.20;1.20;;;30.30;67.60;;;;;;6258885;22;20389;-86
2023/09/11 10:43:41;;;;;;;2.13;2.03;;;30.20;67.00;;;;;;6259816;22;20412;-85
2023/09/11 10:46:15;;;;;;;0.93;0.93;;;30.00;69.20;;;;;;6259866;22;20399;-84
2023/09/11 10:48:43;;;;;;;1.13;1.13;;;30.00;66.80;;;;;;6261542;23;20404;-84
2023/09/11 10:51:12;;;;;;;2.70;2.50;;;30.00;66.70;;;;;;6260757;22;20382;-87
2023/09/11 10:53:40;;;;;;;1.30;1.20;;;29.80;67.00;;;;;;6256082;22;20404;-84
2023/09/11 10:56:10;;;;;;;1.63;1.57;;;30.00;67.90;;;;;;6257276;22;20412;-85
2023/09/11 10:58:39;;;;;;;1.53;1.43;;;30.20;65.20;;;;;;6257178;23;20424;-84
2023/09/11 11:01:06;;;;;;;1.33;1.33;;;30.40;63.00;;;;;;6256282;22;20401;-86
2023/09/11 11:03:34;;;;;;;1.60;1.50;;;30.60;62.20;;;;;;6257889;22;20395;-85
2023/09/11 11:06:02;;;;;;;1.80;1.70;;;30.50;64.10;;;;;;6266510;22;20603;-86
2023/09/11 11:08:34;;;;;;;1.30;1.30;;;30.70;63.40;;;;;;6266801;22;20359;-84
2023/09/11 11:11:02;;;;;;;4.80;4.00;;;30.80;62.90;;;;;;6263227;22;20428;-85
2023/09/11 11:13:30;;;;;;;3.00;2.80;;;30.80;62.50;;;;;;6266280;22;20375;-81
2023/09/11 11:16:15;;;;;;;1.60;1.50;;;30.90;60.90;;;;;;6263252;22;20466;-82
2023/09/11 11:18:43;;;;;;;1.40;1.30;;;30.90;59.10;;;;;;6251557;23;20588;-85
2023/09/11 11:21:11;;;;;;;1.60;1.50;;;30.70;59.10;;;;;;6255501;22;20411;-88
2023/09/11 11:23:53;;;;;;;1.00;1.00;;;30.90;59.70;;;;;;6257374;23;20394;-86
2023/09/11 11:26:26;;;;;;;1.50;1.40;;;31.10;59.70;;;;;;6266392;23;20450;-86
2023/09/11 11:28:53;;;;;;;1.47;1.40;;;31.20;60.20;;;;;;6270345;22;20381;-85
2023/09/11 11:31:22;;;;;;;1.60;1.50;;;31.00;60.20;;;;;;6272300;22;20385;-83
2023/09/11 11:33:51;;;;;;;1.30;1.20;;;30.50;61.20;;;;;;6270852;22;20424;-84
2023/09/11 11:36:19;;;;;;;2.50;2.40;;;30.30;63.50;;;;;;6265613;22;20436;-85
2023/09/11 11:38:51;;;;;;;1.57;1.47;;;30.50;62.90;;;;;;6263094;22;20436;-87
2023/09/11 11:41:19;;;;;;;2.03;1.93;;;30.70;60.70;;;;;;6263782;22;20410;-82
2023/09/11 11:43:46;;;;;;;1.63;1.53;;;30.50;61.70;;;;;;6266453;22;20411;-85
2023/09/11 11:46:15;;;;;;;1.30;1.30;;;30.50;62.00;;;;;;6266915;22;20389;-83
2023/09/11 11:48:44;;;;;;;2.70;2.50;;;30.70;61.20;;;;;;6260000;22;20374;-86
2023/09/11 11:51:11;;;;;;;1.57;1.47;;;30.60;61.90;;;;;;6254929;22;20384;-84
2023/09/11 11:53:39;;;;;;;1.00;1.00;;;30.60;61.50;;;;;;6256819;22;20397;-85
2023/09/11 11:56:06;;;;;;;1.20;1.20;;;30.50;62.80;;;;;;6252666;22;20432;-86
2023/09/11 11:58:33;;;;;;;1.33;1.30;;;30.40;62.10;;;;;;6251207;23;20539;-83
2023/09/11 12:01:05;;;;;;;1.67;1.57;;;30.60;62.90;;;;;;6255384;23;20393;-83
2023/09/11 12:03:44;;;;;;;1.67;1.57;;;30.60;62.50;;;;;;6255208;23;20376;-85
2023/09/11 12:06:11;;;;;;;1.60;1.50;;;30.50;62.20;;;;;;6252732;22;20373;-87
2023/09/11 12:08:39;;;;;;;1.73;1.63;;;30.50;63.30;;;;;;6256747;23;20380;-86
2023/09/11 12:11:08;;;;;;;2.50;2.30;;;30.50;63.00;;;;;;6254118;23;20393;-87
2023/09/11 12:13:35;;;;;;;1.50;1.40;;;30.50;62.50;;;;;;6253313;23;20497;-88
2023/09/11 12:16:15;;;;;;;2.50;2.40;;;30.50;63.30;;;;;;6253430;23;20351;-86
2023/09/11 12:18:43;;;;;;;1.60;1.50;;;30.70;63.80;;;;;;6257030;22;20405;-86
2023/09/11 12:21:10;;;;;;;2.90;2.70;;;30.30;62.20;;;;;;6252313;23;20590;-84
2023/09/11 12:23:38;;;;;;;1.37;1.33;;;30.10;61.40;;;;;;6256890;22;20403;-88
2023/09/11 12:26:05;;;;;;;1.10;1.10;;;29.90;62.40;;;;;;6253833;23;20376;-85
2023/09/11 12:28:33;;;;;;;2.10;2.00;;;29.80;63.90;;;;;;6254756;23;20425;-89
2023/09/11 12:31:00;;;;;;;1.60;1.53;;;30.00;64.70;;;;;;6251650;23;20559;-88
2023/09/11 12:33:32;;;;;;;1.93;1.83;;;29.90;63.60;;;;;;6221426;22;20455;-89
2023/09/11 12:36:00;;;;;;;1.43;1.33;;;29.70;63.10;;;;;;6253582;22;20653;-87
2023/09/11 12:38:29;;;;;;;1.37;1.30;;;29.80;63.20;;;;;;6252799;23;20463;-84
2023/09/11 12:40:56;;;;;;;1.60;1.50;;;29.70;63.50;;;;;;6254203;23;20393;-86
2023/09/11 12:43:25;;;;;;;1.20;1.20;;;29.80;64.70;;;;;;6257859;23;20401;-86
2023/09/11 12:45:54;;;;;;;1.07;1.07;;;29.90;64.30;;;;;;6256409;23;20422;-82
2023/09/11 12:48:22;;;;;;;2.03;1.93;;;30.00;63.70;;;;;;6264208;22;20383;-84
2023/09/11 12:50:49;;;;;;;1.10;1.10;;;30.00;63.80;;;;;;6264330;22;20502;-86
2023/09/11 12:55:51;;;;;;;2.10;2.00;;;30.00;63.90;;;;;;6188989;22;20420;-88
2023/09/11 12:58:18;;;;;;;4.03;3.73;;;29.90;62.50;;;;;;6219989;22;20421;-81
2023/09/11 13:00:49;;;;;;;1.00;1.00;;;29.80;63.10;;;;;;6206532;23;20603;-86
2023/09/11 13:03:16;;;;;;;1.40;1.40;;;29.70;63.70;;;;;;6227463;23;20717;-88
2023/09/11 13:05:45;;;;;;;1.50;1.40;;;29.60;63.90;;;;;;6199841;23;20410;-85
2023/09/11 13:08:14;;;;;;;1.57;1.47;;;29.50;65.40;;;;;;6188687;22;20441;-85
2023/09/11 13:10:41;;;;;;;1.47;1.37;;;29.50;64.90;;;;;;6202258;23;20349;-88
2023/09/11 13:13:08;;;;;;;0.97;0.97;;;29.30;65.60;;;;;;6228802;23;20409;-88
2023/09/11 13:15:51;;;;;;;1.17;1.17;;;29.30;64.50;;;;;;6238505;23;20385;-87
2023/09/11 13:18:18;;;;;;;1.90;1.80;;;29.20;65.50;;;;;;6230412;22;21307;-86
2023/09/11 13:20:45;;;;;;;1.53;1.43;;;29.20;66.40;;;;;;6213593;22;20429;-84
2023/09/11 13:23:12;;;;;;;2.07;1.97;;;29.40;65.80;;;;;;6220360;22;20407;-85
2023/09/11 13:28:22;;;;;;;1.20;1.10;;;29.50;65.10;;;;;;6205628;22;20444;-84
2023/09/11 13:36:28;;;;;;;1.00;1.00;;;29.30;64.50;;;;;;6202213;22;20453;-88
2023/09/11 13:49:34;;;;;;;1.60;1.50;;;29.10;64.10;;;;;;6173499;22;20536;-89
2023/09/11 14:02:43;;;;;;;1.73;1.63;;;29.10;64.40;;;;;;6225589;22;20488;-87
2023/09/11 14:05:11;;;;;;;2.70;2.60;;;29.10;64.60;;;;;;6230456;23;20472;-88
2023/09/11 14:07:38;;;;;;;3.07;2.13;;;28.90;64.50;;;;;;6175190;22;20515;-88
2023/09/11 14:10:06;;;;;;;1.77;1.67;;;28.80;65.80;;;;;;6187444;23;20441;-87
2023/09/11 14:12:33;;;;;;;1.00;1.00;;;28.90;66.40;;;;;;6196602;22;20770;-85
2023/09/11 14:15:00;;;;;;;1.90;1.80;;;28.90;63.70;;;;;;6187476;22;20444;-90
2023/09/11 14:20:05;;;;;;;1.70;1.60;;;28.80;61.80;;;;;;6151670;22;20455;-87
2023/09/11 14:41:08;;;;;;;1.20;1.20;;;28.80;60.70;;;;;;6173516;22;20429;-87
2023/09/11 14:43:36;;;;;;;3.70;3.50;;;28.80;61.80;;;;;;6113812;23;21617;-85
2023/09/11 14:48:38;;;;;;;1.33;1.30;;;28.70;62.20;;;;;;6181608;22;22265;-85
2023/09/11 15:14:06;;;;;;;1.37;1.10;;;28.30;64.30;;;;;;6135667;22;20324;-85
2023/09/11 16:02:20;;;;;;;1.87;1.77;;;27.40;65.70;;;;;;6163214;22;20420;-84
2023/09/11 16:15:29;;;;;;;1.60;1.50;;;27.20;68.20;;;;;;6161535;22;20432;-86
2023/09/11 16:17:57;;;;;;;1.70;1.60;;;27.00;69.70;;;;;;6223540;23;20457;-86
2023/09/11 16:20:27;;;;;;;1.60;1.50;;;27.10;69.50;;;;;;6254343;22;20448;-89
2023/09/11 16:25:30;;;;;;;2.63;2.43;;;27.00;70.40;;;;;;6169549;22;20433;-84
2023/09/11 16:38:32;;;;;;;2.30;2.20;;;26.40;69.20;;;;;;6148348;22;21551;-87
2023/09/11 16:40:59;;;;;;;1.90;1.80;;;26.30;70.20;;;;;;6198530;23;20380;-84
2023/09/11 16:43:26;;;;;;;1.87;1.77;;;26.20;71.50;;;;;;6211073;22;20695;-86
2023/09/11 16:54:16;;;;;;;8.57;3.10;;;25.80;73.00;;;;;;6219449;22;20419;-85
2023/09/11 16:56:47;;;;;;;2.70;2.60;;;25.60;74.10;;;;;;6200489;22;20631;-87
2023/09/11 17:01:50;;;;;;;1.37;1.27;;;25.40;77.20;;;;;;6188212;22;20429;-85
2023/09/11 17:04:56;;;;;;;2.67;2.53;;;25.30;77.50;;;;;;5124559;27;20305;-87
2023/09/11 17:07:30;;;;;;;1.40;1.30;;;25.10;79.00;;;;;;5109583;28;20463;-90
2023/09/11 17:09:57;;;;;;;2.23;2.03;;;25.00;78.70;;;;;;5170060;22;20418;-88
2023/09/11 17:12:25;;;;;;;1.97;1.83;;;24.80;78.20;;;;;;5191286;22;20477;-83
2023/09/11 17:14:51;;;;;;;2.30;2.20;;;24.80;79.20;;;;;;5322759;22;20447;-86
2023/09/11 17:17:19;;;;;;;1.77;1.67;;;24.60;81.20;;;;;;5085014;28;20401;-88
2023/09/11 17:19:47;;;;;;;0.80;0.80;;;24.50;81.70;;;;;;5080484;28;20411;-87
2023/09/11 17:22:15;;;;;;;1.97;1.87;;;24.30;82.50;;;;;;5079198;28;20407;-88
2023/09/11 17:24:43;;;;;;;3.10;2.90;;;24.20;85.80;;;;;;5095004;22;20487;-82